Auburn, Kansas
Current Conditions -  °F | °C
As of 4:53 PM on Thursday 18 Dec 2014 (Local Time) from KFOE Reporting Station
Haze Haze  
Wind Chill: 28°   Ceiling: 700
Heat Index: 33°   Visibility: 5mi
Dew Point: 29°   Wind: 6mph
Humidity: 85%   Direction: 10°N
Pressure: 30.2"   Gusts: NA
Location:  38.91°N, 95.82°W
Report Text: KFOE 182253Z 01005KT 5SM BR OVC007 01/M02 A3020 RMK AO2 SLP235 T00061017
Loading
Personal Weather Stations






























Interactive Weather Map New forecast layout! Learn more

10-Day Weather Forecast

Advertisements
Track Severe Weather on mobile